createdAt,value
2019-03-19T12:57:43.863Z,41.58
2019-03-19T13:00:17.438Z,40.90
2019-03-19T13:02:46.396Z,39.66
2019-03-19T13:05:15.356Z,42.37
2019-03-19T13:07:44.380Z,41.36
2019-03-19T13:10:16.139Z,40.74
2019-03-19T13:12:45.263Z,42.16
2019-03-19T13:15:14.706Z,41.46
2019-03-19T13:17:43.803Z,39.17
2019-03-19T13:20:13.278Z,41.17
2019-03-19T13:22:42.169Z,40.34
2019-03-19T13:25:13.068Z,40.53
2019-03-19T13:27:43.618Z,40.18
2019-03-19T13:30:14.607Z,41.77
2019-03-19T13:32:43.561Z,41.22
2019-03-19T13:35:13.039Z,41.68
2019-03-19T13:37:43.971Z,41.83
2019-03-19T13:40:14.475Z,41.81
2019-03-19T13:42:43.395Z,41.92
2019-03-19T13:45:13.364Z,41.69
2019-03-19T13:47:42.330Z,40.43
2019-03-19T13:50:11.519Z,37.88
2019-03-19T13:52:40.401Z,38.30
2019-03-19T13:55:11.073Z,37.32
2019-03-19T13:57:40.036Z,37.42
2019-03-19T14:00:10.277Z,38.17
2019-03-19T14:02:39.347Z,36.92
2019-03-19T14:05:08.849Z,37.89
2019-03-19T14:07:38.137Z,37.37
2019-03-19T14:10:07.900Z,37.68
2019-03-19T14:12:37.916Z,37.44
2019-03-19T14:15:08.197Z,37.08
2019-03-19T14:17:37.150Z,39.13
2019-03-19T14:20:07.614Z,38.96
2019-03-19T14:22:36.679Z,40.06
2019-03-19T14:25:05.972Z,38.62
2019-03-19T14:27:34.828Z,37.57
2019-03-19T14:30:03.783Z,38.20
2019-03-19T14:32:32.733Z,38.13
2019-03-19T14:35:01.913Z,37.31
2019-03-19T14:37:31.137Z,36.94
2019-03-19T14:40:00.412Z,35.87
2019-03-19T14:42:31.383Z,36.14
2019-03-19T14:45:00.515Z,35.77
2019-03-19T14:47:29.487Z,34.70
2019-03-19T14:50:00.602Z,35.64
2019-03-19T14:52:29.600Z,36.94
2019-03-19T14:55:03.248Z,37.88
2019-03-19T14:57:31.995Z,38.06
2019-03-19T15:00:01.047Z,38.22
2019-03-19T15:02:29.966Z,40.01
2019-03-19T15:04:58.933Z,37.69
2019-03-19T15:07:28.000Z,36.98
2019-03-19T15:09:56.956Z,36.89
2019-03-19T15:12:25.920Z,38.62
2019-03-19T15:14:54.909Z,39.17
2019-03-19T15:17:23.953Z,40.18
2019-03-19T15:19:53.163Z,40.71
2019-03-19T15:22:32.205Z,41.07
2019-03-19T15:24:52.942Z,40.73
2019-03-19T15:27:21.866Z,41.36
2019-03-19T15:29:50.679Z,39.56
2019-03-19T15:32:19.667Z,39.62
2019-03-19T15:34:48.394Z,41.39
2019-03-19T15:37:17.281Z,41.19
2019-03-19T15:39:46.251Z,41.38
2019-03-19T15:42:15.029Z,39.28
2019-03-19T15:44:44.096Z,40.07
2019-03-19T15:47:13.122Z,40.39
2019-03-19T15:49:42.153Z,39.74
2019-03-19T15:52:11.225Z,39.91
2019-03-19T15:54:40.111Z,40.04
2019-03-19T15:57:09.298Z,41.64
2019-03-19T15:59:38.800Z,41.63
2019-03-19T16:02:08.015Z,40.59
2019-03-19T16:04:37.261Z,39.80
2019-03-19T16:07:09.599Z,39.73
2019-03-19T16:09:38.628Z,39.23
2019-03-19T16:12:07.611Z,39.06
2019-03-19T16:14:36.686Z,39.44
2019-03-19T16:17:05.710Z,40.69
2019-03-19T16:19:41.093Z,41.32
2019-03-19T16:22:10.184Z,41.40
2019-03-19T16:24:39.336Z,41.53
2019-03-19T16:27:08.327Z,41.76
2019-03-19T16:29:37.464Z,41.76
2019-03-19T16:32:06.574Z,42.18
2019-03-19T16:34:35.682Z,42.41
2019-03-19T16:37:04.638Z,41.63
2019-03-19T16:39:35.293Z,41.68
2019-03-19T16:42:04.315Z,41.86
2019-03-19T16:44:34.366Z,40.87
2019-03-19T16:47:03.316Z,40.56
2019-03-19T16:49:32.294Z,41.91
2019-03-19T16:52:01.241Z,43.03
2019-03-19T16:54:30.197Z,41.08
2019-03-19T16:57:00.430Z,42.88
2019-03-19T16:59:29.396Z,40.12
2019-03-19T17:02:01.678Z,40.65
2019-03-19T17:04:29.329Z,42.44
2019-03-19T17:06:58.317Z,42.57
2019-03-19T17:09:27.396Z,43.46
2019-03-19T17:11:56.416Z,43.67
2019-03-19T17:14:25.267Z,43.16
2019-03-19T17:16:56.898Z,43.91
2019-03-19T17:19:26.890Z,44.86
2019-03-19T17:21:57.128Z,44.89
2019-03-19T17:24:29.058Z,42.83
2019-03-19T17:27:04.378Z,42.88
2019-03-19T17:29:34.435Z,45.14
2019-03-19T17:32:12.561Z,45.36
2019-03-19T17:34:34.956Z,45.66
2019-03-19T17:37:03.986Z,44.55
2019-03-19T17:39:33.097Z,45.13
2019-03-19T17:42:03.992Z,45.18
2019-03-19T17:44:32.910Z,45.18
2019-03-19T17:47:04.030Z,45.96
2019-03-19T17:49:36.058Z,46.07
2019-03-19T17:52:05.127Z,46.34
2019-03-19T17:54:34.271Z,45.55
2019-03-19T17:57:03.156Z,44.47
2019-03-19T17:59:32.672Z,45.68
2019-03-19T18:02:01.662Z,45.39
2019-03-19T18:04:30.546Z,46.20
2019-03-19T18:06:59.510Z,46.22
2019-03-19T18:09:28.940Z,45.33
2019-03-19T18:11:57.817Z,45.83
2019-03-19T18:14:27.953Z,46.80
2019-03-19T18:16:56.908Z,45.40
2019-03-19T18:19:25.866Z,45.37
2019-03-19T18:21:54.789Z,45.11
2019-03-19T18:24:24.815Z,45.80
2019-03-19T18:26:53.911Z,45.57
2019-03-19T18:29:23.455Z,45.96
2019-03-19T18:31:56.193Z,46.21
2019-03-19T18:34:26.647Z,46.86
2019-03-19T18:36:55.647Z,47.87
2019-03-19T18:39:47.758Z,46.99
2019-03-19T18:42:16.967Z,46.59
2019-03-19T18:44:46.149Z,46.81
2019-03-19T18:47:17.523Z,46.74
2019-03-19T18:49:46.957Z,46.89
2019-03-19T18:52:28.078Z,46.95
2019-03-19T18:54:57.104Z,47.94
2019-03-19T18:57:28.712Z,47.55
2019-03-19T18:59:57.624Z,47.19
2019-03-19T19:02:26.658Z,50.27
2019-03-19T19:04:55.690Z,49.03
2019-03-19T19:07:25.669Z,48.67
2019-03-19T19:09:54.626Z,48.75
2019-03-19T19:12:23.753Z,49.30
2019-03-19T19:14:55.908Z,49.54
2019-03-19T19:17:25.712Z,49.58
2019-03-19T19:19:54.901Z,48.71
2019-03-19T19:22:25.549Z,48.65
2019-03-19T19:24:58.376Z,49.29
2019-03-19T19:27:27.671Z,49.66
2019-03-19T19:29:56.967Z,49.64
2019-03-19T19:32:26.142Z,49.92
2019-03-19T19:34:55.533Z,49.65
2019-03-19T19:37:24.685Z,50.27
2019-03-19T19:39:53.774Z,49.55
2019-03-19T19:42:22.631Z,49.52
2019-03-19T19:44:51.995Z,49.61
2019-03-19T19:47:21.165Z,50.23
2019-03-19T19:49:50.237Z,49.77
2019-03-19T19:52:19.333Z,49.42
2019-03-19T19:54:48.508Z,49.82
2019-03-19T19:57:19.263Z,49.79
2019-03-19T19:59:48.451Z,50.32
2019-03-19T20:02:17.633Z,50.77
2019-03-19T20:04:46.732Z,50.30
2019-03-19T20:07:18.699Z,50.70
2019-03-19T20:09:47.767Z,50.26
2019-03-19T20:12:18.036Z,51.36
2019-03-19T20:14:49.268Z,52.49
2019-03-19T20:17:18.327Z,50.95
2019-03-19T20:19:47.242Z,52.57
2019-03-19T20:22:17.298Z,51.42
2019-03-19T20:24:46.336Z,51.17
2019-03-19T20:27:15.108Z,53.73
2019-03-19T20:29:45.080Z,52.86
2019-03-19T20:32:13.954Z,53.31
2019-03-19T20:34:42.935Z,52.28
2019-03-19T20:37:12.073Z,52.33
2019-03-19T20:39:41.893Z,52.55
2019-03-19T20:42:10.947Z,52.46
2019-03-19T20:44:40.090Z,52.04
2019-03-19T20:47:14.907Z,52.87
2019-03-19T20:49:48.084Z,53.58
2019-03-19T20:52:18.206Z,54.52
2019-03-19T20:54:47.238Z,53.78
2019-03-19T20:57:16.275Z,52.95
2019-03-19T20:59:45.124Z,53.14
2019-03-19T21:02:14.212Z,52.94
2019-03-19T21:04:44.519Z,53.65
2019-03-19T21:07:13.594Z,54.12
2019-03-19T21:09:43.153Z,53.80
2019-03-19T21:12:14.054Z,54.01
2019-03-19T21:14:43.231Z,53.75
2019-03-19T21:17:12.268Z,53.98
2019-03-19T21:19:42.429Z,55.21
2019-03-19T21:22:11.461Z,54.08
2019-03-19T21:24:42.610Z,53.40
2019-03-19T21:27:12.665Z,53.19
2019-03-19T21:29:41.816Z,53.84
2019-03-19T21:32:11.620Z,54.45
2019-03-19T21:34:40.546Z,53.72
2019-03-19T21:37:09.454Z,54.28
2019-03-19T21:39:38.340Z,54.39
2019-03-19T21:42:08.213Z,54.31
2019-03-19T21:44:37.257Z,54.92
2019-03-19T21:47:07.231Z,55.02
2019-03-19T21:49:36.330Z,55.96
2019-03-19T21:52:07.267Z,55.58
2019-03-19T21:54:36.265Z,55.73
2019-03-19T21:57:06.140Z,55.92
2019-03-19T21:59:35.505Z,56.82
2019-03-19T22:02:05.515Z,58.53
2019-03-19T22:04:34.598Z,57.88
2019-03-19T22:07:03.472Z,58.27
2019-03-19T22:09:32.318Z,58.47
2019-03-19T22:12:01.212Z,58.42
2019-03-19T22:14:30.089Z,58.63
2019-03-19T22:16:59.015Z,58.39
2019-03-19T22:19:28.994Z,58.39
2019-03-19T22:21:58.099Z,58.72
2019-03-19T22:24:27.090Z,58.16
2019-03-19T22:26:56.125Z,58.58
2019-03-19T22:29:24.987Z,58.65
2019-03-19T22:31:53.851Z,59.04
2019-03-19T22:34:22.831Z,59.66
2019-03-19T22:36:51.631Z,59.50
2019-03-19T22:39:26.304Z,59.43
2019-03-19T22:41:55.348Z,59.04
2019-03-19T22:44:26.785Z,59.13
2019-03-19T22:46:55.651Z,59.83
2019-03-19T22:49:25.552Z,59.81
2019-03-19T22:51:54.368Z,60.31
2019-03-19T22:54:23.202Z,60.43
2019-03-19T22:56:51.979Z,61.05
2019-03-19T22:59:20.860Z,61.06
2019-03-19T23:01:49.716Z,60.74
2019-03-19T23:04:26.914Z,61.94
2019-03-19T23:06:50.229Z,61.76
2019-03-19T23:09:19.111Z,61.15
2019-03-19T23:11:47.969Z,60.69
2019-03-19T23:14:16.705Z,60.91
2019-03-19T23:16:45.618Z,60.47
2019-03-19T23:19:14.612Z,60.23
2019-03-19T23:21:43.495Z,59.95
2019-03-19T23:24:12.461Z,59.97
2019-03-19T23:26:41.304Z,60.19
2019-03-19T23:29:10.123Z,60.51
2019-03-19T23:31:38.856Z,60.58
2019-03-19T23:34:07.680Z,60.66
2019-03-19T23:36:36.486Z,61.13
2019-03-19T23:39:06.653Z,61.28
2019-03-19T23:41:35.566Z,61.40
2019-03-19T23:44:04.753Z,61.68
2019-03-19T23:46:33.630Z,62.04
2019-03-19T23:49:02.498Z,62.20
2019-03-19T23:51:31.213Z,62.25
2019-03-19T23:53:59.998Z,62.44
2019-03-19T23:56:28.732Z,62.43
2019-03-19T23:58:57.627Z,62.99
